Terminal Aerodrome Forecast
Issued by NWS Twin Cities, MN

Home | Current Version | Previous Version | Text Only | Print | Product List | Glossary On
Versions: 1 2 3 4 5 6 7 8 9 10 11 12 13
000
FTUS43 KMPX 291100
TAFEAU
TAF
KEAU 291130Z 2912/3012 28006KT P6SM SCT060
     FM291500 31008KT P6SM BKN050
     FM291800 30011KT P6SM VCSH BKN050 BKN100
     FM300100 30004KT P6SM SCT060 BKN100=

USA.gov is the U.S. government's official web portal to all federal, state and local government web resources and services.